createdAt,value
2023-02-22T00:00:31.573Z,12.78
2023-02-22T00:01:31.765Z,12.75
2023-02-22T00:02:31.920Z,12.74
2023-02-22T00:03:32.129Z,12.74
2023-02-22T00:04:32.289Z,12.71
2023-02-22T00:05:32.441Z,12.75
2023-02-22T00:06:32.626Z,12.71
2023-02-22T00:07:32.777Z,12.69
2023-02-22T00:08:32.968Z,12.72
2023-02-22T00:09:33.116Z,12.71
2023-02-22T00:10:33.301Z,12.66
2023-02-22T00:11:33.458Z,12.66
2023-02-22T00:12:33.607Z,12.67
2023-02-22T00:13:33.786Z,12.67
2023-02-22T00:14:33.955Z,12.66
2023-02-22T00:15:34.109Z,12.69
2023-02-22T00:16:34.315Z,12.67
2023-02-22T00:17:34.463Z,12.66
2023-02-22T00:18:34.627Z,12.67
2023-02-22T00:19:34.794Z,12.60
2023-02-22T00:20:34.953Z,12.64
2023-02-22T00:21:35.134Z,12.66
2023-02-22T00:22:35.330Z,12.64
2023-02-22T00:23:35.454Z,12.64
2023-02-22T00:24:35.602Z,12.63
2023-02-22T00:25:35.773Z,12.63
2023-02-22T00:26:35.923Z,12.63
2023-02-22T00:27:36.119Z,12.61
2023-02-22T00:28:36.277Z,12.64
2023-02-22T00:29:36.438Z,12.61
2023-02-22T00:30:36.635Z,12.60
2023-02-22T00:31:36.842Z,12.61
2023-02-22T00:32:36.986Z,12.60
2023-02-22T00:33:37.097Z,12.60
2023-02-22T00:34:37.264Z,12.59
2023-02-22T00:35:37.435Z,12.63
2023-02-22T00:36:37.621Z,12.61
2023-02-22T00:37:37.766Z,12.59
2023-02-22T00:38:37.915Z,12.57
2023-02-22T00:39:38.090Z,12.59
2023-02-22T00:40:38.235Z,12.57
2023-02-22T00:41:38.427Z,12.57
2023-02-22T00:42:38.558Z,12.59
2023-02-22T00:43:38.749Z,12.57
2023-02-22T00:44:38.895Z,12.57
2023-02-22T00:45:39.096Z,12.56
2023-02-22T00:46:39.277Z,12.57
2023-02-22T00:47:39.420Z,12.54
2023-02-22T00:48:39.585Z,12.56
2023-02-22T00:49:39.738Z,12.56
2023-02-22T00:50:39.896Z,12.56
2023-02-22T00:51:40.121Z,12.54
2023-02-22T00:52:40.287Z,12.53
2023-02-22T00:53:40.432Z,12.52
2023-02-22T00:54:40.639Z,12.52
2023-02-22T00:55:40.759Z,12.53
2023-02-22T00:56:41.000Z,12.48
2023-02-22T00:57:41.116Z,12.54
2023-02-22T00:58:41.330Z,12.48
2023-02-22T00:59:41.500Z,12.49
2023-02-22T01:00:41.731Z,12.46
2023-02-22T01:01:41.852Z,12.48
2023-02-22T01:02:42.011Z,12.46
2023-02-22T01:03:42.180Z,12.44
2023-02-22T01:04:42.346Z,12.42
2023-02-22T01:05:42.546Z,12.44
2023-02-22T01:06:42.711Z,12.41
2023-02-22T01:07:42.886Z,12.44
2023-02-22T01:08:43.051Z,12.41
2023-02-22T01:09:43.203Z,12.38
2023-02-22T01:10:43.410Z,12.38
2023-02-22T01:11:43.574Z,12.36
2023-02-22T01:12:43.746Z,12.35
2023-02-22T01:13:43.908Z,12.34
2023-02-22T01:14:44.096Z,12.34
2023-02-22T01:15:44.272Z,12.29
2023-02-22T01:16:44.562Z,12.31
2023-02-22T01:17:44.625Z,12.35
2023-02-22T01:18:44.829Z,12.27
2023-02-22T01:19:44.945Z,12.24
2023-02-22T01:20:45.236Z,12.27
2023-02-22T01:21:45.290Z,12.23
2023-02-22T01:22:45.436Z,12.24
2023-02-22T01:23:45.600Z,12.21
2023-02-22T01:24:45.792Z,12.23
2023-02-22T01:25:45.979Z,12.19
2023-02-22T01:26:46.147Z,12.19
2023-02-22T01:27:46.281Z,12.16
2023-02-22T01:28:46.448Z,12.13
2023-02-22T01:29:46.607Z,12.12
2023-02-22T01:30:46.868Z,12.11
2023-02-22T01:31:46.943Z,12.11
2023-02-22T01:32:47.093Z,12.08
2023-02-22T01:33:47.249Z,12.08
2023-02-22T01:34:47.426Z,12.05
2023-02-22T01:35:47.637Z,12.04
2023-02-22T01:36:47.778Z,12.04
2023-02-22T01:37:47.917Z,12.04
2023-02-22T01:38:48.084Z,11.99
2023-02-22T01:39:48.255Z,11.98
2023-02-22T01:40:48.451Z,11.93
2023-02-22T01:41:48.629Z,11.93
2023-02-22T01:42:48.770Z,11.93
2023-02-22T01:43:48.927Z,11.91
2023-02-22T01:44:49.088Z,11.87
2023-02-22T01:45:49.338Z,11.88
2023-02-22T01:46:49.481Z,11.90
2023-02-22T01:47:49.591Z,11.84
2023-02-22T01:48:49.751Z,11.81
2023-02-22T01:49:49.933Z,11.81
2023-02-22T01:50:50.131Z,11.81
2023-02-22T01:51:50.240Z,11.75
2023-02-22T01:52:50.419Z,11.73
2023-02-22T01:53:50.581Z,11.73
2023-02-22T01:54:50.763Z,11.71
2023-02-22T01:55:50.928Z,11.73
2023-02-22T01:56:51.080Z,11.65
2023-02-22T01:57:51.284Z,11.69
2023-02-22T01:58:51.406Z,11.65
2023-02-22T01:59:51.590Z,11.66
2023-02-22T02:00:51.746Z,11.62
2023-02-22T02:01:51.932Z,11.61
2023-02-22T02:02:52.114Z,11.57
2023-02-22T02:03:52.304Z,11.59
2023-02-22T02:04:52.502Z,11.53
2023-02-22T02:05:53.615Z,11.57
2023-02-22T02:06:52.800Z,11.50
2023-02-22T02:07:52.989Z,11.51
2023-02-22T02:08:53.176Z,11.51
2023-02-22T02:09:53.341Z,11.48
2023-02-22T02:10:53.491Z,11.48
2023-02-22T02:11:53.677Z,11.48
2023-02-22T02:12:53.858Z,11.46
2023-02-22T02:13:54.000Z,11.44
2023-02-22T02:14:54.195Z,11.44
2023-02-22T02:15:54.337Z,11.43
2023-02-22T02:16:54.519Z,11.39
2023-02-22T02:17:54.667Z,11.39
2023-02-22T02:18:54.818Z,11.43
2023-02-22T02:19:55.016Z,11.39
2023-02-22T02:20:55.183Z,11.38
2023-02-22T02:21:55.333Z,11.36
2023-02-22T02:22:55.526Z,11.31
2023-02-22T02:23:55.719Z,11.32
2023-02-22T02:24:55.900Z,11.32
2023-02-22T02:25:56.063Z,11.35
2023-02-22T02:26:56.222Z,11.35
2023-02-22T02:27:56.379Z,11.28
2023-02-22T02:28:56.575Z,11.28
2023-02-22T02:29:56.766Z,11.28
2023-02-22T02:30:56.914Z,11.29
2023-02-22T02:31:57.136Z,11.29
2023-02-22T02:32:57.243Z,11.29
2023-02-22T02:33:57.446Z,11.28
2023-02-22T02:34:57.644Z,11.31
2023-02-22T02:35:57.812Z,11.32
2023-02-22T02:36:58.004Z,11.29
2023-02-22T02:37:58.164Z,11.28
2023-02-22T02:38:58.358Z,11.27
2023-02-22T02:39:58.543Z,11.27
2023-02-22T02:40:58.683Z,11.28
2023-02-22T02:41:58.834Z,11.28
2023-02-22T02:42:58.999Z,11.28
2023-02-22T02:43:59.167Z,11.29
2023-02-22T02:44:59.327Z,11.28
2023-02-22T02:45:59.481Z,11.29
2023-02-22T02:46:59.664Z,11.29
2023-02-22T02:47:59.805Z,11.27
2023-02-22T02:48:59.981Z,11.27
2023-02-22T02:50:00.145Z,11.32
2023-02-22T02:51:00.301Z,11.27
2023-02-22T02:52:00.490Z,11.29
2023-02-22T02:53:00.650Z,11.32
2023-02-22T02:54:00.824Z,11.32
2023-02-22T02:55:00.982Z,11.31
2023-02-22T02:56:01.137Z,11.32
2023-02-22T02:57:01.320Z,11.28
2023-02-22T02:58:01.519Z,11.29
2023-02-22T02:59:01.713Z,11.31
2023-02-22T03:00:01.912Z,11.29
2023-02-22T03:01:02.043Z,11.29
2023-02-22T03:02:02.220Z,11.31
2023-02-22T03:03:02.375Z,11.32
2023-02-22T03:04:02.542Z,11.36
2023-02-22T03:05:02.706Z,11.35
2023-02-22T03:06:02.867Z,11.35
2023-02-22T03:07:03.120Z,11.35
2023-02-22T03:08:03.214Z,11.31
2023-02-22T03:09:03.397Z,11.28
2023-02-22T03:10:03.565Z,11.28
2023-02-22T03:11:03.714Z,11.29
2023-02-22T03:12:03.893Z,11.27
2023-02-22T03:13:04.085Z,11.36
2023-02-22T03:14:04.264Z,11.31
2023-02-22T03:15:04.423Z,11.31
2023-02-22T03:16:04.670Z,11.28
2023-02-22T03:17:04.765Z,11.31
2023-02-22T03:18:04.938Z,11.29
2023-02-22T03:19:05.168Z,11.28
2023-02-22T03:20:05.312Z,11.32
2023-02-22T03:21:05.502Z,11.32
2023-02-22T03:22:05.685Z,11.31
2023-02-22T03:23:05.863Z,11.35
2023-02-22T03:24:06.021Z,11.36
2023-02-22T03:25:06.174Z,11.36
2023-02-22T03:26:06.342Z,11.29
2023-02-22T03:27:06.512Z,11.35
2023-02-22T03:28:06.660Z,11.29
2023-02-22T03:29:06.821Z,11.29
2023-02-22T03:30:07.016Z,11.32
2023-02-22T03:31:07.179Z,11.32
2023-02-22T03:32:07.323Z,11.31
2023-02-22T03:33:07.513Z,11.29
2023-02-22T03:34:07.663Z,11.35
2023-02-22T03:35:07.857Z,11.36
2023-02-22T03:36:08.022Z,11.31
2023-02-22T03:37:08.220Z,11.31
2023-02-22T03:39:23.465Z,11.32
2023-02-22T03:40:23.625Z,11.24
2023-02-22T03:41:23.777Z,11.21
2023-02-22T03:42:23.965Z,11.25
2023-02-22T03:43:24.136Z,11.27
2023-02-22T03:44:24.321Z,11.24
2023-02-22T03:45:24.474Z,11.25
2023-02-22T03:46:24.672Z,11.25
2023-02-22T03:47:24.818Z,11.27
2023-02-22T03:48:24.958Z,11.32
2023-02-22T03:49:25.126Z,11.32
2023-02-22T03:50:25.280Z,11.36
2023-02-22T03:51:25.468Z,11.32
2023-02-22T03:52:25.652Z,11.31
2023-02-22T03:53:25.796Z,11.36
2023-02-22T03:54:25.998Z,11.36
2023-02-22T03:55:26.171Z,11.35
2023-02-22T03:56:26.329Z,11.36
2023-02-22T03:57:26.489Z,11.38
2023-02-22T03:58:26.651Z,11.36
2023-02-22T03:59:26.830Z,11.43
2023-02-22T04:00:26.984Z,11.43
2023-02-22T04:01:27.170Z,11.44
2023-02-22T04:02:27.360Z,11.39
2023-02-22T04:03:27.550Z,11.39
2023-02-22T04:04:27.759Z,11.39
2023-02-22T04:05:27.870Z,11.41
2023-02-22T04:06:28.040Z,11.41
2023-02-22T04:07:28.211Z,11.36
2023-02-22T04:08:28.431Z,11.43
2023-02-22T04:09:28.583Z,11.46
2023-02-22T04:10:28.757Z,11.43
2023-02-22T04:11:28.975Z,11.43
2023-02-22T04:12:29.092Z,11.46
2023-02-22T04:13:29.280Z,11.46
2023-02-22T04:14:29.763Z,11.44
2023-02-22T04:15:29.625Z,11.46
2023-02-22T04:16:29.845Z,11.46
2023-02-22T04:17:29.993Z,11.43
2023-02-22T04:18:30.156Z,11.44
2023-02-22T04:19:30.312Z,11.46
2023-02-22T04:20:30.474Z,11.46
2023-02-22T04:21:30.694Z,11.48
2023-02-22T04:22:30.867Z,11.47
2023-02-22T04:23:31.022Z,11.44
2023-02-22T04:24:31.207Z,11.48
2023-02-22T04:25:31.338Z,11.48
2023-02-22T04:26:31.525Z,11.44
2023-02-22T04:27:31.687Z,11.46
2023-02-22T04:28:31.853Z,11.47
2023-02-22T04:29:32.038Z,11.46
2023-02-22T04:30:32.372Z,11.47
2023-02-22T04:31:32.403Z,11.51
2023-02-22T04:32:32.565Z,11.48
2023-02-22T04:33:32.717Z,11.48
2023-02-22T04:34:32.888Z,11.46
2023-02-22T04:35:35.423Z,11.50
2023-02-22T04:36:33.213Z,11.50
2023-02-22T04:37:33.386Z,11.48
2023-02-22T04:38:33.543Z,11.47
2023-02-22T04:39:33.731Z,11.50
2023-02-22T04:40:33.860Z,11.46
2023-02-22T04:41:34.027Z,11.46
2023-02-22T04:42:34.197Z,11.47
2023-02-22T04:43:34.346Z,11.50
2023-02-22T04:44:34.519Z,11.53
2023-02-22T04:45:34.689Z,11.50
2023-02-22T04:46:34.942Z,11.50
2023-02-22T04:47:35.020Z,11.51
2023-02-22T04:48:35.180Z,11.50
2023-02-22T04:49:37.425Z,11.51
2023-02-22T04:50:35.514Z,11.54
2023-02-22T04:51:35.712Z,11.53
2023-02-22T04:52:35.887Z,11.53
2023-02-22T04:53:36.058Z,11.50
2023-02-22T04:54:36.220Z,11.54
2023-02-22T04:55:36.372Z,11.55
2023-02-22T04:56:36.543Z,11.55
2023-02-22T04:57:36.712Z,11.48
2023-02-22T04:58:36.862Z,11.53
2023-02-22T04:59:37.023Z,11.51
2023-02-22T05:00:37.188Z,11.51
2023-02-22T05:01:37.344Z,11.54
2023-02-22T05:02:37.583Z,11.53
2023-02-22T05:03:37.694Z,11.57
2023-02-22T05:04:37.927Z,11.59
2023-02-22T05:05:38.046Z,11.53
2023-02-22T05:06:38.215Z,11.55
2023-02-22T05:07:38.373Z,11.51
2023-02-22T05:08:38.535Z,11.54
2023-02-22T05:09:38.682Z,11.53
2023-02-22T05:10:38.848Z,11.51
2023-02-22T05:11:39.018Z,11.51
2023-02-22T05:12:39.190Z,11.54
2023-02-22T05:13:39.335Z,11.54
2023-02-22T05:14:39.504Z,11.51
2023-02-22T05:15:39.666Z,11.54
2023-02-22T05:16:39.835Z,11.54
2023-02-22T05:17:40.031Z,11.54
2023-02-22T05:18:40.190Z,11.53
2023-02-22T05:19:40.344Z,11.53
2023-02-22T05:20:40.506Z,11.48
2023-02-22T05:21:40.713Z,11.53
2023-02-22T05:22:40.872Z,11.53
2023-02-22T05:23:41.018Z,11.53
2023-02-22T05:24:41.188Z,11.53
2023-02-22T05:25:41.340Z,11.51
2023-02-22T05:26:41.511Z,11.54
2023-02-22T05:27:41.662Z,11.53
2023-02-22T05:28:41.826Z,11.48
2023-02-22T05:29:41.994Z,11.53
2023-02-22T05:30:42.250Z,11.53
2023-02-22T05:31:42.450Z,11.50
2023-02-22T05:32:42.509Z,11.51
2023-02-22T05:33:42.659Z,11.53
2023-02-22T05:34:42.819Z,11.51
2023-02-22T05:35:42.986Z,11.53
2023-02-22T05:36:43.422Z,11.53
2023-02-22T05:37:43.308Z,11.53
2023-02-22T05:38:43.669Z,11.54
2023-02-22T05:39:43.632Z,11.54
2023-02-22T05:40:43.808Z,11.54
2023-02-22T05:41:43.973Z,11.51
2023-02-22T05:42:44.124Z,11.55
2023-02-22T05:43:44.294Z,11.53
2023-02-22T05:44:44.455Z,11.53
2023-02-22T05:45:44.618Z,11.54
2023-02-22T05:46:44.876Z,11.53
2023-02-22T05:47:44.965Z,11.53
2023-02-22T05:48:45.129Z,11.51
2023-02-22T05:49:45.283Z,11.51
2023-02-22T05:50:45.477Z,11.54
2023-02-22T05:51:45.648Z,11.51
2023-02-22T05:52:45.828Z,11.57
2023-02-22T05:53:45.968Z,11.51
2023-02-22T05:54:46.167Z,11.53
2023-02-22T05:55:46.656Z,11.54
2023-02-22T05:56:46.507Z,11.53
2023-02-22T05:57:46.686Z,11.54
2023-02-22T05:58:46.838Z,11.55
2023-02-22T05:59:47.000Z,11.55
2023-02-22T06:00:47.207Z,11.55
2023-02-22T06:01:47.448Z,11.54
2023-02-22T06:02:47.585Z,11.54
2023-02-22T06:03:47.738Z,11.55
2023-02-22T06:04:47.897Z,11.55
2023-02-22T06:05:48.138Z,11.55
2023-02-22T06:06:48.271Z,11.55
2023-02-22T06:07:48.457Z,11.53
2023-02-22T06:08:48.615Z,11.57
2023-02-22T06:09:48.757Z,11.57
2023-02-22T06:10:48.948Z,11.55
2023-02-22T06:11:49.088Z,11.53
2023-02-22T06:12:49.290Z,11.55
2023-02-22T06:13:49.457Z,11.61
2023-02-22T06:14:49.625Z,11.55
2023-02-22T06:15:49.787Z,11.57
2023-02-22T06:16:49.958Z,11.54
2023-02-22T06:17:50.149Z,11.61
2023-02-22T06:18:50.290Z,11.51
2023-02-22T06:19:50.473Z,11.59
2023-02-22T06:20:50.649Z,11.55
2023-02-22T06:21:50.830Z,11.59
2023-02-22T06:22:51.018Z,11.54
2023-02-22T06:23:51.178Z,11.62
2023-02-22T06:24:52.982Z,11.61
2023-02-22T06:25:51.529Z,11.57
2023-02-22T06:26:51.701Z,11.62
2023-02-22T06:27:51.882Z,11.57
2023-02-22T06:28:52.059Z,11.62
2023-02-22T06:29:52.235Z,11.61
2023-02-22T06:30:52.375Z,11.63
2023-02-22T06:31:52.596Z,11.69
2023-02-22T06:32:52.702Z,11.79
2023-02-22T06:33:52.874Z,11.84
2023-02-22T06:34:53.040Z,11.90
2023-02-22T06:35:53.210Z,11.96
2023-02-22T06:36:53.374Z,12.04
2023-02-22T06:37:53.541Z,12.11
2023-02-22T06:38:53.734Z,12.20
2023-02-22T06:39:53.892Z,12.24
2023-02-22T06:40:54.063Z,12.34
2023-02-22T06:41:54.242Z,12.42
2023-02-22T06:42:54.392Z,12.49
2023-02-22T06:43:54.581Z,12.56
2023-02-22T06:44:54.761Z,12.63
2023-02-22T06:45:54.972Z,12.69
2023-02-22T06:46:55.100Z,12.75
2023-02-22T06:47:55.273Z,12.83
2023-02-22T06:48:55.458Z,12.86
2023-02-22T06:49:55.645Z,12.98
2023-02-22T06:50:55.774Z,13.04
2023-02-22T06:51:55.966Z,13.11
2023-02-22T06:52:56.145Z,13.15
2023-02-22T06:53:56.339Z,13.16
2023-02-22T06:54:56.462Z,13.19
2023-02-22T06:55:56.624Z,13.20
2023-02-22T06:56:56.786Z,13.22
2023-02-22T06:57:56.981Z,13.20
2023-02-22T06:58:57.146Z,13.19
2023-02-22T06:59:57.325Z,13.22
2023-02-22T07:00:57.517Z,13.22
2023-02-22T07:01:57.672Z,13.19
2023-02-22T07:02:57.899Z,13.18
2023-02-22T07:03:58.001Z,13.16
2023-02-22T07:04:58.172Z,13.13
2023-02-22T07:05:58.333Z,13.12
2023-02-22T07:06:58.507Z,13.09
2023-02-22T07:07:58.683Z,13.15
2023-02-22T07:08:58.842Z,13.09
2023-02-22T07:09:59.052Z,13.11
2023-02-22T07:10:59.176Z,13.05
2023-02-22T07:11:59.356Z,13.11
2023-02-22T07:12:59.537Z,13.04
2023-02-22T07:13:59.699Z,13.01
2023-02-22T07:14:59.874Z,13.01
2023-02-22T07:16:00.135Z,13.00
2023-02-22T07:17:00.219Z,13.00
2023-02-22T07:18:00.388Z,12.98
2023-02-22T07:19:00.555Z,12.94
2023-02-22T07:20:00.719Z,12.95
2023-02-22T07:21:00.901Z,12.95
2023-02-22T07:22:01.062Z,12.91
2023-02-22T07:23:01.257Z,12.93
2023-02-22T07:24:01.429Z,12.90
2023-02-22T07:25:01.611Z,12.86
2023-02-22T07:26:01.791Z,12.83
2023-02-22T07:27:01.966Z,12.82
2023-02-22T07:28:02.162Z,12.83
2023-02-22T07:29:02.333Z,12.83
2023-02-22T07:30:02.510Z,12.80
2023-02-22T07:31:03.520Z,12.83
2023-02-22T07:32:02.937Z,12.83
2023-02-22T07:33:03.122Z,12.83
2023-02-22T07:34:03.228Z,12.83
2023-02-22T07:35:03.424Z,12.79
2023-02-22T07:36:03.590Z,12.85
2023-02-22T07:37:03.752Z,12.86
2023-02-22T07:38:03.956Z,12.86
2023-02-22T07:39:04.117Z,12.91
2023-02-22T07:40:04.306Z,12.95
2023-02-22T07:41:04.472Z,12.97
2023-02-22T07:42:04.643Z,13.03
2023-02-22T07:43:06.832Z,13.11
2023-02-22T07:44:04.992Z,13.07
2023-02-22T07:45:05.178Z,13.15
2023-02-22T07:46:05.439Z,13.13
2023-02-22T07:47:05.519Z,13.18
2023-02-22T07:48:05.719Z,13.20
2023-02-22T07:49:05.866Z,13.25
2023-02-22T07:50:06.070Z,13.28
2023-02-22T07:51:06.248Z,13.27
2023-02-22T07:52:06.429Z,13.28
2023-02-22T07:53:06.616Z,13.35
2023-02-22T07:54:06.786Z,13.40
2023-02-22T07:55:06.956Z,13.38
2023-02-22T07:56:07.179Z,13.46
2023-02-22T07:57:07.325Z,13.49
2023-02-22T07:58:07.496Z,13.56
2023-02-22T07:59:07.681Z,13.58
2023-02-22T08:00:07.859Z,13.59
2023-02-22T08:01:08.058Z,13.66
2023-02-22T08:02:08.241Z,13.68
2023-02-22T08:03:08.373Z,13.71
2023-02-22T08:04:08.538Z,13.80
2023-02-22T08:05:08.718Z,13.84
2023-02-22T08:06:08.909Z,13.89
2023-02-22T08:07:09.083Z,13.89
2023-02-22T08:08:09.260Z,13.96
2023-02-22T08:09:09.441Z,13.99
2023-02-22T08:10:09.619Z,14.08
2023-02-22T08:11:09.796Z,14.13
2023-02-22T08:12:09.962Z,14.17
2023-02-22T08:13:10.142Z,14.23
2023-02-22T08:14:10.337Z,14.25
2023-02-22T08:15:10.512Z,14.32
2023-02-22T08:16:10.701Z,14.34
2023-02-22T08:17:10.884Z,14.40
2023-02-22T08:18:11.030Z,14.42
2023-02-22T08:19:11.203Z,14.44
2023-02-22T08:20:11.370Z,14.40
2023-02-22T08:21:11.550Z,14.40
2023-02-22T08:22:11.733Z,14.36
2023-02-22T08:23:11.915Z,14.40
2023-02-22T08:24:12.117Z,14.37
2023-02-22T08:25:12.277Z,14.37
2023-02-22T08:26:12.458Z,14.37
2023-02-22T08:27:12.635Z,14.33
2023-02-22T08:28:12.821Z,14.34
2023-02-22T08:29:13.001Z,14.34
2023-02-22T08:30:13.217Z,14.30
2023-02-22T08:31:13.418Z,14.29
2023-02-22T08:32:13.629Z,14.32
2023-02-22T08:33:13.813Z,14.29
2023-02-22T08:34:13.907Z,14.27
2023-02-22T08:35:14.089Z,14.27
2023-02-22T08:36:14.259Z,14.26
2023-02-22T08:37:14.439Z,14.27
2023-02-22T08:38:14.638Z,14.22
2023-02-22T08:39:14.790Z,14.23
2023-02-22T08:40:15.146Z,14.25
2023-02-22T08:41:15.395Z,14.18
2023-02-22T08:42:15.330Z,14.18
2023-02-22T08:43:15.524Z,14.17
2023-02-22T08:44:15.680Z,14.18
2023-02-22T08:45:16.860Z,14.16
2023-02-22T08:46:16.064Z,14.13
2023-02-22T08:47:16.218Z,14.13
2023-02-22T08:48:16.426Z,14.11
2023-02-22T08:49:16.567Z,14.13
2023-02-22T08:50:16.824Z,14.11
2023-02-22T08:51:17.275Z,14.10
2023-02-22T08:52:17.132Z,14.11
2023-02-22T08:53:17.304Z,14.07
2023-02-22T08:54:17.481Z,14.06
2023-02-22T08:55:17.628Z,14.06
2023-02-22T08:56:17.817Z,14.06
2023-02-22T08:57:19.615Z,13.99
2023-02-22T08:58:18.198Z,14.04
2023-02-22T08:59:18.360Z,13.99
2023-02-22T09:00:18.529Z,13.99
2023-02-22T09:01:24.881Z,14.01
2023-02-22T09:02:19.954Z,13.99
2023-02-22T09:03:19.112Z,13.99
2023-02-22T09:04:19.263Z,13.96
2023-02-22T09:05:19.409Z,13.96
2023-02-22T09:06:19.616Z,13.98
2023-02-22T09:07:19.749Z,14.01
2023-02-22T09:08:19.929Z,13.96
2023-02-22T09:09:20.140Z,14.01
2023-02-22T09:10:20.306Z,14.01
2023-02-22T09:11:20.461Z,13.99
2023-02-22T09:12:20.648Z,13.96
2023-02-22T09:13:20.814Z,14.01
2023-02-22T09:14:21.001Z,13.99
2023-02-22T09:15:21.182Z,14.01
2023-02-22T09:16:21.386Z,14.01
2023-02-22T09:17:21.521Z,13.99
2023-02-22T09:18:21.763Z,13.98
2023-02-22T09:19:21.878Z,13.99
2023-02-22T09:20:22.067Z,14.03
2023-02-22T09:21:22.242Z,14.03
2023-02-22T09:22:22.423Z,14.04
2023-02-22T09:23:22.609Z,13.99
2023-02-22T09:24:22.794Z,14.06
2023-02-22T09:25:22.977Z,14.06
2023-02-22T09:26:23.145Z,14.04
2023-02-22T09:27:23.339Z,14.03
2023-02-22T09:28:23.507Z,14.03
2023-02-22T09:29:23.677Z,14.07
2023-02-22T09:30:24.180Z,14.08
2023-02-22T09:31:24.214Z,14.07
2023-02-22T09:32:24.450Z,14.10
2023-02-22T09:33:24.407Z,14.08
2023-02-22T09:34:24.572Z,14.13
2023-02-22T09:35:24.742Z,14.11
2023-02-22T09:36:26.209Z,14.11
2023-02-22T09:37:25.105Z,14.14
2023-02-22T09:38:25.292Z,14.13
2023-02-22T09:39:25.519Z,14.16
2023-02-22T09:40:25.659Z,14.16
2023-02-22T09:41:25.870Z,14.13
2023-02-22T09:42:26.008Z,14.17
2023-02-22T09:43:26.178Z,14.22
2023-02-22T09:44:26.749Z,14.18
2023-02-22T09:45:26.576Z,14.23
2023-02-22T09:46:26.712Z,14.23
2023-02-22T09:47:26.908Z,14.22
2023-02-22T09:48:27.078Z,14.23
2023-02-22T09:49:27.264Z,14.25
2023-02-22T09:50:27.445Z,14.26
2023-02-22T09:51:27.637Z,14.26
2023-02-22T09:52:27.791Z,14.25
2023-02-22T09:53:27.990Z,14.29
2023-02-22T09:54:28.159Z,14.32
2023-02-22T09:55:28.351Z,14.30
2023-02-22T09:56:28.524Z,14.30
2023-02-22T09:57:28.717Z,14.29
2023-02-22T09:58:28.895Z,14.32
2023-02-22T09:59:29.073Z,14.33
2023-02-22T10:00:29.247Z,14.29
2023-02-22T10:01:29.424Z,14.34
2023-02-22T10:02:29.604Z,14.34
2023-02-22T10:03:29.884Z,14.34
2023-02-22T10:04:29.947Z,14.37
2023-02-22T10:05:30.148Z,14.37
2023-02-22T10:06:30.305Z,14.36
2023-02-22T10:07:30.506Z,14.40
2023-02-22T10:08:31.416Z,14.37
2023-02-22T10:09:30.856Z,14.37
2023-02-22T10:10:31.039Z,14.41
2023-02-22T10:11:31.218Z,14.42
2023-02-22T10:12:31.397Z,14.44
2023-02-22T10:13:31.568Z,14.44
2023-02-22T10:14:31.748Z,14.44
2023-02-22T10:15:31.930Z,14.45
2023-02-22T10:16:32.133Z,14.48
2023-02-22T10:17:32.302Z,14.48
2023-02-22T10:18:32.471Z,14.50
2023-02-22T10:19:32.655Z,14.52
2023-02-22T10:20:32.824Z,14.54
2023-02-22T10:21:32.997Z,14.55
2023-02-22T10:22:33.200Z,14.54
2023-02-22T10:23:33.349Z,14.57
2023-02-22T10:24:33.531Z,14.60
2023-02-22T10:25:33.709Z,14.62
2023-02-22T10:26:33.882Z,14.60
2023-02-22T10:27:34.146Z,14.66
2023-02-22T10:28:34.235Z,14.63
2023-02-22T10:29:34.438Z,14.66
2023-02-22T10:30:34.751Z,14.66
2023-02-22T10:31:34.854Z,14.67
2023-02-22T10:32:34.984Z,14.69
2023-02-22T10:33:35.118Z,14.75
2023-02-22T10:34:35.287Z,14.69
2023-02-22T10:35:35.458Z,14.75
2023-02-22T10:36:35.645Z,14.75
2023-02-22T10:37:35.875Z,14.77
2023-02-22T10:38:36.011Z,14.77
2023-02-22T10:39:36.204Z,14.81
2023-02-22T10:40:36.355Z,14.82
2023-02-22T10:41:36.554Z,14.81
2023-02-22T10:42:36.718Z,14.88
2023-02-22T10:43:36.910Z,14.90
2023-02-22T10:44:37.071Z,14.95
2023-02-22T10:45:37.407Z,15.00
2023-02-22T10:46:37.422Z,15.06
2023-02-22T10:47:37.583Z,15.15
2023-02-22T10:48:37.749Z,15.20
2023-02-22T10:49:37.950Z,15.24
2023-02-22T10:50:38.128Z,15.27
2023-02-22T10:51:38.309Z,15.40
2023-02-22T10:52:38.464Z,15.42
2023-02-22T10:53:38.760Z,15.49
2023-02-22T10:54:38.815Z,15.51
2023-02-22T10:55:39.060Z,15.62
2023-02-22T10:56:39.190Z,15.68
2023-02-22T10:57:39.356Z,15.76
2023-02-22T10:58:39.528Z,15.77
2023-02-22T10:59:39.676Z,15.83
2023-02-22T11:00:39.842Z,15.92
2023-02-22T11:01:40.170Z,15.98
2023-02-22T11:02:40.197Z,15.99
2023-02-22T11:03:40.357Z,16.09
2023-02-22T11:04:40.543Z,16.10
2023-02-22T11:05:40.690Z,16.14
2023-02-22T11:06:40.859Z,16.20
2023-02-22T11:07:41.036Z,16.25
2023-02-22T11:08:41.205Z,16.29
2023-02-22T11:09:41.405Z,16.31
2023-02-22T11:10:41.575Z,16.31
2023-02-22T11:11:41.756Z,16.32
2023-02-22T11:12:41.918Z,16.36
2023-02-22T11:13:42.084Z,16.38
2023-02-22T11:14:42.257Z,16.39
2023-02-22T11:15:42.438Z,16.42
2023-02-22T11:16:42.644Z,16.39
2023-02-22T11:17:42.779Z,16.38
2023-02-22T11:18:42.964Z,16.41
2023-02-22T11:19:43.160Z,16.36
2023-02-22T11:20:43.290Z,16.39
2023-02-22T11:21:43.498Z,16.41
2023-02-22T11:22:43.645Z,16.38
2023-02-22T11:23:45.083Z,16.36
2023-02-22T11:24:49.212Z,16.35
2023-02-22T11:25:45.167Z,16.34
2023-02-22T11:26:44.338Z,16.36
2023-02-22T11:27:44.519Z,16.35
2023-02-22T11:28:44.712Z,16.34
2023-02-22T11:29:44.881Z,16.32
2023-02-22T11:30:45.146Z,16.28
2023-02-22T11:31:45.341Z,16.29
2023-02-22T11:32:45.434Z,16.26
2023-02-22T11:33:45.614Z,16.29
2023-02-22T11:34:45.811Z,16.23
2023-02-22T11:35:45.992Z,16.20
2023-02-22T11:36:46.124Z,16.21
2023-02-22T11:37:46.686Z,16.20
2023-02-22T11:38:46.492Z,16.20
2023-02-22T11:39:46.728Z,16.17
2023-02-22T11:40:46.848Z,16.16
2023-02-22T11:41:47.020Z,16.16
2023-02-22T11:42:47.228Z,16.14
2023-02-22T11:43:47.405Z,16.13
2023-02-22T11:44:47.568Z,16.13
2023-02-22T11:45:57.832Z,16.09
2023-02-22T11:46:48.962Z,16.11
2023-02-22T11:47:48.114Z,16.10
2023-02-22T11:48:48.293Z,16.09
2023-02-22T11:49:48.477Z,16.07
2023-02-22T11:50:48.645Z,16.04
2023-02-22T11:51:48.817Z,16.05
2023-02-22T11:52:49.015Z,16.05
2023-02-22T11:53:49.146Z,16.01
2023-02-22T11:54:49.316Z,15.99
2023-02-22T11:55:49.506Z,15.98
2023-02-22T11:56:49.685Z,16.01
2023-02-22T11:57:49.867Z,15.98
2023-02-22T11:58:50.044Z,15.98
2023-02-22T11:59:50.217Z,15.96
2023-02-22T12:00:50.398Z,15.96
2023-02-22T12:01:50.567Z,15.96
2023-02-22T12:02:56.905Z,15.95
2023-02-22T12:03:52.034Z,15.98
2023-02-22T12:04:51.145Z,15.98
2023-02-22T12:05:51.285Z,15.96
2023-02-22T12:06:51.447Z,15.94
2023-02-22T12:07:51.649Z,15.95
2023-02-22T12:08:54.061Z,15.94
2023-02-22T12:09:51.997Z,15.94
2023-02-22T12:10:52.165Z,15.95
2023-02-22T12:11:52.354Z,15.95
2023-02-22T12:12:52.521Z,15.98
2023-02-22T12:13:52.698Z,15.95
2023-02-22T12:14:55.209Z,15.96
2023-02-22T12:15:53.136Z,15.96
2023-02-22T12:16:53.226Z,15.95
2023-02-22T12:17:59.769Z,15.91
2023-02-22T12:18:54.573Z,15.92
2023-02-22T12:19:53.818Z,15.95
2023-02-22T12:20:55.611Z,15.95
2023-02-22T12:21:54.122Z,15.96
2023-02-22T12:22:54.292Z,15.96
2023-02-22T12:23:54.547Z,15.99
2023-02-22T12:25:03.959Z,15.94
2023-02-22T12:25:55.822Z,15.99
2023-02-22T12:26:55.015Z,15.96
2023-02-22T12:27:55.230Z,15.96
2023-02-22T12:28:55.484Z,15.99
2023-02-22T12:29:55.547Z,15.98
2023-02-22T12:30:55.739Z,15.96
2023-02-22T12:31:55.930Z,15.98
2023-02-22T12:32:56.102Z,15.99
2023-02-22T12:33:56.340Z,16.04
2023-02-22T12:34:56.452Z,16.01
2023-02-22T12:35:56.675Z,16.01
2023-02-22T12:36:56.768Z,16.01
2023-02-22T12:37:56.921Z,16.04
2023-02-22T12:38:57.156Z,16.01
2023-02-22T12:39:57.285Z,16.04
2023-02-22T12:40:57.444Z,16.07
2023-02-22T12:41:57.614Z,16.04
2023-02-22T12:42:57.823Z,16.04
2023-02-22T12:43:57.983Z,16.05
2023-02-22T12:44:58.154Z,16.07
2023-02-22T12:45:58.328Z,16.05
2023-02-22T12:46:58.537Z,16.09
2023-02-22T12:47:58.681Z,16.09
2023-02-22T12:48:58.877Z,16.09
2023-02-22T12:49:59.019Z,16.11
2023-02-22T12:50:59.199Z,16.07
2023-02-22T12:52:01.476Z,16.09
2023-02-22T12:53:00.549Z,16.09
2023-02-22T12:53:59.762Z,16.10
2023-02-22T12:54:59.910Z,16.11
2023-02-22T12:56:00.098Z,16.11